createdAt,value
2023-02-04T00:03:07.493Z,9.31
2023-02-04T00:08:10.701Z,9.29
2023-02-04T00:13:13.657Z,9.28
2023-02-04T00:18:16.688Z,9.26
2023-02-04T00:23:19.732Z,9.28
2023-02-04T00:28:22.829Z,9.31
2023-02-04T00:33:26.090Z,9.30
2023-02-04T00:38:28.984Z,9.29
2023-02-04T00:43:32.696Z,9.23
2023-02-04T00:48:35.789Z,9.19
2023-02-04T00:53:38.871Z,9.18
2023-02-04T00:58:42.016Z,9.19
2023-02-04T01:03:45.053Z,9.21
2023-02-04T01:08:48.098Z,9.25
2023-02-04T01:13:52.451Z,9.27
2023-02-04T01:18:55.688Z,9.31
2023-02-04T01:24:00.812Z,9.34
2023-02-04T01:29:04.296Z,9.41
2023-02-04T01:34:07.689Z,9.45
2023-02-04T01:39:13.436Z,9.49
2023-02-04T01:44:16.542Z,9.55
2023-02-04T01:49:19.674Z,9.57
2023-02-04T01:54:22.835Z,9.61
2023-02-04T01:59:27.920Z,9.63
2023-02-04T02:04:33.808Z,9.67
2023-02-04T02:09:38.143Z,9.72
2023-02-04T02:14:42.220Z,9.70
2023-02-04T02:19:45.242Z,9.68
2023-02-04T02:24:48.433Z,9.65
2023-02-04T02:29:52.082Z,9.67
2023-02-04T02:34:55.157Z,9.67
2023-02-04T02:39:58.513Z,9.68
2023-02-04T02:45:03.190Z,9.71
2023-02-04T02:50:06.669Z,9.71
2023-02-04T02:55:19.499Z,9.79
2023-02-04T03:00:28.689Z,9.85
2023-02-04T03:05:41.257Z,9.88
2023-02-04T03:10:45.746Z,9.85
2023-02-04T03:15:50.016Z,9.82
2023-02-04T03:20:53.713Z,9.78
2023-02-04T03:25:57.043Z,9.76
2023-02-04T03:31:00.353Z,9.70
2023-02-04T03:36:03.355Z,9.49
2023-02-04T03:41:06.310Z,9.30
2023-02-04T03:46:09.697Z,9.09
2023-02-04T03:51:12.863Z,8.93
2023-02-04T03:56:16.030Z,8.91
2023-02-04T04:01:19.537Z,8.95
2023-02-04T04:06:23.175Z,9.01
2023-02-04T04:11:26.708Z,9.11
2023-02-04T04:16:29.820Z,9.13
2023-02-04T04:21:32.931Z,9.15
2023-02-04T04:26:36.817Z,9.17
2023-02-04T04:31:39.947Z,9.17
2023-02-04T04:36:43.007Z,9.19
2023-02-04T04:41:46.026Z,9.26
2023-02-04T04:46:49.410Z,9.35
2023-02-04T04:51:52.446Z,9.39
2023-02-04T04:56:55.455Z,9.47
2023-02-04T05:01:58.560Z,9.52
2023-02-04T05:07:01.702Z,9.59
2023-02-04T05:12:05.086Z,9.62
2023-02-04T05:17:08.137Z,9.66
2023-02-04T05:22:12.074Z,9.72
2023-02-04T05:27:15.167Z,9.68
2023-02-04T05:32:18.364Z,9.72
2023-02-04T05:37:21.594Z,9.79
2023-02-04T05:42:24.808Z,9.89
2023-02-04T05:47:28.065Z,9.99
2023-02-04T05:52:30.986Z,9.99
2023-02-04T05:57:34.048Z,10.01
2023-02-04T06:02:37.100Z,10.03
2023-02-04T06:07:40.184Z,9.93
2023-02-04T06:12:43.265Z,9.81
2023-02-04T06:17:46.347Z,9.77
2023-02-04T06:22:49.412Z,9.73
2023-02-04T06:27:52.605Z,9.68
2023-02-04T06:32:55.768Z,9.83
2023-02-04T06:38:01.277Z,10.02
2023-02-04T06:43:05.597Z,10.26
2023-02-04T06:48:08.850Z,10.32
2023-02-04T06:53:12.055Z,10.33
2023-02-04T06:58:15.213Z,10.62
2023-02-04T07:03:18.299Z,10.84
2023-02-04T07:08:21.287Z,11.14
2023-02-04T07:13:24.448Z,11.20
2023-02-04T07:18:27.830Z,11.31
2023-02-04T07:23:30.994Z,11.27
2023-02-04T07:28:34.202Z,11.32
2023-02-04T07:33:37.358Z,11.26
2023-02-04T07:38:40.306Z,11.20
2023-02-04T07:43:43.387Z,11.10
2023-02-04T07:48:46.568Z,11.02
2023-02-04T07:53:49.886Z,11.07
2023-02-04T07:58:53.238Z,11.26
2023-02-04T08:03:56.270Z,11.26
2023-02-04T08:08:59.551Z,11.24
2023-02-04T08:14:02.549Z,11.30
2023-02-04T08:19:05.562Z,11.47
2023-02-04T08:24:09.115Z,11.63
2023-02-04T08:29:12.645Z,11.53
2023-02-04T08:34:15.707Z,11.34
2023-02-04T08:39:19.031Z,11.40
2023-02-04T08:44:22.221Z,11.62
2023-02-04T08:49:25.250Z,11.90
2023-02-04T08:54:29.439Z,12.10
2023-02-04T08:59:32.699Z,12.23
2023-02-04T09:04:35.759Z,12.52
2023-02-04T09:09:38.754Z,13.03
2023-02-04T09:14:41.970Z,13.28
2023-02-04T09:19:45.131Z,12.93
2023-02-04T09:24:48.347Z,12.11
2023-02-04T09:29:51.776Z,11.45
2023-02-04T09:34:54.729Z,11.32
2023-02-04T09:39:58.041Z,11.67
2023-02-04T09:45:01.053Z,11.87
2023-02-04T09:50:05.423Z,12.03
2023-02-04T09:55:16.192Z,12.28
2023-02-04T10:00:21.744Z,12.43
2023-02-04T10:05:29.645Z,12.54
2023-02-04T10:10:33.408Z,12.63
2023-02-04T10:15:36.623Z,12.70
2023-02-04T10:20:39.733Z,12.73
2023-02-04T10:25:42.848Z,12.93
2023-02-04T10:30:46.646Z,12.97
2023-02-04T10:35:50.790Z,12.98
2023-02-04T10:41:04.198Z,13.29
2023-02-04T10:46:07.240Z,13.33
2023-02-04T10:51:13.606Z,12.91
2023-02-04T10:56:22.359Z,12.61
2023-02-04T11:01:28.983Z,11.62
2023-02-04T11:06:33.465Z,11.01
2023-02-04T11:11:36.715Z,10.52
2023-02-04T11:16:48.301Z,10.35
2023-02-04T11:21:51.732Z,10.24
2023-02-04T11:27:20.162Z,10.30
2023-02-04T11:32:35.743Z,10.26
2023-02-04T11:37:42.157Z,10.34
2023-02-04T11:42:46.656Z,10.56
2023-02-04T11:47:52.219Z,10.90
2023-02-04T11:52:55.705Z,11.07
2023-02-04T11:58:00.117Z,11.26
2023-02-04T12:03:06.246Z,11.27
2023-02-04T12:08:22.702Z,11.55
2023-02-04T12:13:29.670Z,11.90
2023-02-04T12:18:35.199Z,12.02
2023-02-04T12:23:38.375Z,12.03
2023-02-04T12:28:41.948Z,12.03
2023-02-04T12:33:46.271Z,12.24
2023-02-04T12:38:49.411Z,12.27
2023-02-04T12:43:52.617Z,12.10
2023-02-04T12:48:56.053Z,11.93
2023-02-04T12:53:59.188Z,11.76
2023-02-04T12:59:02.280Z,11.83
2023-02-04T13:04:06.550Z,11.93
2023-02-04T13:09:09.768Z,11.99
2023-02-04T13:14:12.795Z,12.23
2023-02-04T13:19:15.950Z,12.32
2023-02-04T13:24:19.647Z,12.37
2023-02-04T13:29:23.089Z,12.36
2023-02-04T13:34:27.494Z,12.17
2023-02-04T13:39:31.011Z,12.14
2023-02-04T13:44:33.929Z,12.29
2023-02-04T13:49:37.135Z,12.57
2023-02-04T13:54:40.215Z,12.71
2023-02-04T13:59:43.410Z,12.69
2023-02-04T14:04:46.418Z,12.75
2023-02-04T14:09:51.336Z,12.76
2023-02-04T14:14:58.286Z,12.75
2023-02-04T14:20:03.014Z,12.72
2023-02-04T14:25:06.682Z,12.59
2023-02-04T14:30:21.333Z,12.42
2023-02-04T14:35:25.585Z,12.37
2023-02-04T14:40:28.832Z,12.22
2023-02-04T14:45:34.782Z,12.09
2023-02-04T14:50:38.171Z,12.06
2023-02-04T14:55:41.564Z,11.94
2023-02-04T15:00:45.047Z,11.72
2023-02-04T15:05:51.529Z,11.47
2023-02-04T15:10:55.480Z,11.27
2023-02-04T15:15:58.544Z,11.29
2023-02-04T15:21:02.176Z,11.47
2023-02-04T15:26:06.109Z,11.46
2023-02-04T15:31:09.507Z,11.18
2023-02-04T15:36:12.970Z,10.96
2023-02-04T15:41:16.215Z,10.82
2023-02-04T15:46:19.282Z,10.73
2023-02-04T15:51:22.543Z,10.73
2023-02-04T15:56:27.704Z,10.72
2023-02-04T16:01:31.146Z,10.75
2023-02-04T16:06:34.297Z,10.79
2023-02-04T16:11:40.424Z,10.81
2023-02-04T16:16:47.958Z,10.84
2023-02-04T16:21:51.168Z,11.00
2023-02-04T16:26:54.784Z,11.12
2023-02-04T16:31:58.134Z,11.17
2023-02-04T16:37:02.392Z,11.13
2023-02-04T16:42:06.663Z,10.96
2023-02-04T16:47:10.187Z,10.87
2023-02-04T16:52:13.296Z,10.85
2023-02-04T16:57:16.486Z,10.82
2023-02-04T17:02:19.684Z,10.80
2023-02-04T17:07:23.400Z,10.76
2023-02-04T17:12:29.285Z,10.66
2023-02-04T17:17:36.606Z,10.63
2023-02-04T17:22:39.748Z,10.69
2023-02-04T17:27:43.929Z,10.70
2023-02-04T17:32:47.087Z,10.65
2023-02-04T17:37:53.013Z,10.71
2023-02-04T17:43:00.429Z,10.83
2023-02-04T17:48:05.027Z,10.90
2023-02-04T17:53:08.395Z,10.98
2023-02-04T17:58:14.934Z,11.06
2023-02-04T18:03:23.383Z,11.06
2023-02-04T18:08:41.028Z,10.98
2023-02-04T18:13:44.893Z,10.92
2023-02-04T18:18:48.020Z,10.93
2023-02-04T18:24:02.296Z,10.93
2023-02-04T18:29:31.132Z,10.93
2023-02-04T18:34:44.734Z,10.99
2023-02-04T18:39:47.860Z,10.99
2023-02-04T18:44:51.286Z,11.07
2023-02-04T18:49:54.294Z,11.11
2023-02-04T18:54:58.011Z,11.16
2023-02-04T19:00:24.064Z,11.13
2023-02-04T19:05:33.991Z,11.10
2023-02-04T19:10:43.893Z,11.15
2023-02-04T19:15:58.606Z,11.23
2023-02-04T19:21:16.365Z,11.30
2023-02-04T19:26:28.535Z,11.32
2023-02-04T19:31:36.829Z,11.32
2023-02-04T19:36:39.950Z,11.39
2023-02-04T19:41:53.298Z,11.44
2023-02-04T19:46:57.830Z,11.49
2023-02-04T19:52:01.102Z,11.52
2023-02-04T19:57:25.710Z,11.53
2023-02-04T20:02:33.907Z,11.54
2023-02-04T20:07:38.458Z,11.47
2023-02-04T20:12:41.668Z,11.48
2023-02-04T20:17:49.332Z,11.52
2023-02-04T20:22:55.027Z,11.55
2023-02-04T20:28:03.332Z,11.58
2023-02-04T20:33:19.370Z,11.59
2023-02-04T20:38:22.846Z,11.62
2023-02-04T20:43:26.099Z,11.63
2023-02-04T20:48:33.914Z,11.61
2023-02-04T20:53:45.457Z,11.62
2023-02-04T20:58:48.758Z,11.59
2023-02-04T21:03:52.003Z,11.49
2023-02-04T21:08:56.240Z,11.46
2023-02-04T21:13:59.473Z,11.39
2023-02-04T21:19:03.065Z,11.37
2023-02-04T21:24:06.886Z,11.30
2023-02-04T21:29:10.016Z,11.25
2023-02-04T21:34:14.054Z,11.22
2023-02-04T21:39:17.185Z,11.20
2023-02-04T21:44:20.253Z,11.17
2023-02-04T21:49:23.479Z,11.14
2023-02-04T21:54:26.589Z,11.16
2023-02-04T21:59:33.713Z,11.13
2023-02-04T22:04:36.829Z,11.11
2023-02-04T22:09:39.950Z,11.11
2023-02-04T22:14:43.027Z,11.15
2023-02-04T22:19:46.060Z,11.16
2023-02-04T22:24:49.111Z,11.22
2023-02-04T22:29:52.397Z,11.29
2023-02-04T22:34:55.612Z,11.37
2023-02-04T22:39:58.774Z,11.38
2023-02-04T22:45:01.931Z,11.24
2023-02-04T22:50:07.497Z,11.15
2023-02-04T22:55:10.604Z,11.12
2023-02-04T23:00:16.362Z,11.16
2023-02-04T23:05:19.655Z,11.23
2023-02-04T23:10:22.706Z,11.35
2023-02-04T23:15:25.921Z,11.44
2023-02-04T23:20:29.081Z,11.48
2023-02-04T23:25:34.106Z,11.45
2023-02-04T23:30:37.389Z,11.38
2023-02-04T23:35:40.501Z,11.42
2023-02-04T23:40:43.636Z,11.46
2023-02-04T23:45:46.758Z,11.45
2023-02-04T23:50:50.041Z,11.40
2023-02-04T23:55:53.258Z,11.33
